CPX258 Details

Departure: Grantley Adams International Airport (TBPB)
Arrival: Princess Juliana International Airport (TNCM)
Route: BGI UA632 ANU UB520 ELOPO ULUBA1


Current Weather Information
TBPB 251000Z 10014KT 9999 FEW020 27/23 Q1013 NOSIG
TNCM 251000Z 07010KT 9999 SCT017 BKN036 27/23 Q1015 A2997 NOSIG